Terminal Aerodrome Forecast
Issued by NWS Chicago, IL

Home | Current Version | Previous Version | Graphics & Text | Print | Product List | Glossary On
Versions: 1 2 3 4 5 6 7 8 9 10 11 12 13 14 15 16 17 18 19 20 21 22 23 24 25 26 27 28 29
000
FTUS43 KLOT 231332 AAA
TAFRFD
TAF AMD
KRFD 231332Z 2314/2412 21008KT P6SM BKN012 OVC070
     FM231500 21009KT 6SM -SHRA SCT012 BKN040 OVC080
     FM231900 21007KT 6SM -SHRA VCTS BKN035CB OVC050
     FM232300 23005KT 6SM -SHRA BKN025 OVC040
     FM240100 06006KT P6SM VCSH SCT015 OVC025
     FM240200 06006KT 6SM BR VCSH SCT010 OVC015
     FM240500 04007KT 5SM BR SCT006 OVC010=

USA.gov is the U.S. government's official web portal to all federal, state and local government web resources and services.